Time;durP1;ratioP1;P1;durP2;ratioP2;P2;SDS_P1;SDS_P2;PMS_P1;PMS_P2;Temp;Humidity;BMP_temperature;BMP_pressure;BME280_temperature;BME280_humidity;BME280_pressure;Samples;Min_cycle;Max_cycle;Signal;HPM_P1;HPM_P2
2023/01/18 00:01:36;;;;;;;8.48;6.35;;;13.60;99.90;;;;;;5207499;28;20064;-73
2023/01/18 00:04:07;;;;;;;10.55;5.10;;;13.60;99.90;;;;;;5207517;28;20521;-74
2023/01/18 00:06:38;;;;;;;14.88;9.50;;;13.70;99.90;;;;;;5207452;28;20363;-74
2023/01/18 00:09:09;;;;;;;10.93;8.15;;;13.90;99.90;;;;;;5207697;28;20029;-74
2023/01/18 00:11:39;;;;;;;10.20;3.28;;;13.90;99.90;;;;;;5207337;28;20052;-73
2023/01/18 00:14:10;;;;;;;12.50;3.47;;;13.90;99.90;;;;;;5207287;28;20028;-72
2023/01/18 00:16:41;;;;;;;17.50;4.95;;;13.90;99.90;;;;;;5207176;28;20045;-73
2023/01/18 00:19:12;;;;;;;16.27;14.77;;;13.90;99.90;;;;;;5206337;28;20029;-73
2023/01/18 00:21:43;;;;;;;24.13;21.80;;;14.10;99.90;;;;;;5207120;28;20029;-73
2023/01/18 00:24:14;;;;;;;12.77;11.35;;;13.80;99.90;;;;;;5205804;28;20021;-74
2023/01/18 00:26:45;;;;;;;18.48;15.77;;;14.10;99.90;;;;;;5207045;28;20033;-73
2023/01/18 00:29:16;;;;;;;11.90;6.68;;;14.00;99.90;;;;;;5205699;28;20021;-74
2023/01/18 00:31:47;;;;;;;16.48;14.45;;;14.00;99.90;;;;;;5206761;28;20029;-74
2023/01/18 00:34:18;;;;;;;17.13;13.82;;;14.10;99.90;;;;;;5207022;28;20096;-74
2023/01/18 00:36:49;;;;;;;16.70;15.35;;;14.00;99.90;;;;;;5206956;28;20100;-73
2023/01/18 00:39:20;;;;;;;15.02;13.50;;;14.00;99.90;;;;;;5206717;28;20064;-73
2023/01/18 00:44:40;;;;;;;17.60;16.07;;;13.90;99.90;;;;;;5206945;28;20040;-72
2023/01/18 00:47:12;;;;;;;11.38;7.25;;;14.10;99.90;;;;;;5206508;28;20304;-73
2023/01/18 00:49:43;;;;;;;21.08;19.58;;;14.00;99.90;;;;;;5206726;28;20018;-73
2023/01/18 00:52:14;;;;;;;21.23;17.05;;;14.10;99.90;;;;;;5206566;28;20018;-73
2023/01/18 00:54:45;;;;;;;26.85;24.52;;;14.00;99.90;;;;;;5206465;28;20488;-73
2023/01/18 00:57:16;;;;;;;17.67;16.33;;;14.00;99.90;;;;;;5205181;28;20021;-74
2023/01/18 00:59:46;;;;;;;15.43;13.90;;;13.90;99.90;;;;;;5205133;28;20424;-74
2023/01/18 01:02:17;;;;;;;15.10;13.80;;;14.00;99.90;;;;;;5206380;28;20056;-73
2023/01/18 01:07:37;;;;;;;16.90;15.00;;;14.00;99.90;;;;;;5206165;28;20041;-73
2023/01/18 01:10:09;;;;;;;24.10;21.60;;;14.10;99.90;;;;;;5206128;28;20025;-73
2023/01/18 01:26:45;;;;;;;9.68;5.78;;;13.90;99.90;;;;;;5205852;28;20550;-73
2023/01/18 01:29:16;;;;;;;22.30;15.52;;;13.90;99.90;;;;;;5205789;28;20022;-73
2023/01/18 01:31:47;;;;;;;22.05;13.18;;;14.00;99.90;;;;;;5205757;28;20030;-74
2023/01/18 01:34:18;;;;;;;19.45;17.77;;;14.00;99.90;;;;;;5205722;28;20041;-73
2023/01/18 01:36:49;;;;;;;7.88;7.22;;;14.10;99.90;;;;;;5205663;28;20087;-73
2023/01/18 01:39:20;;;;;;;16.75;15.35;;;14.10;99.90;;;;;;5205666;28;20021;-72
2023/01/18 01:41:51;;;;;;;16.65;15.25;;;14.10;99.90;;;;;;5204464;28;20380;-74
2023/01/18 01:44:23;;;;;;;25.10;23.13;;;14.00;99.90;;;;;;5205728;28;20017;-74
2023/01/18 01:47:09;;;;;;;31.23;28.83;;;14.10;99.90;;;;;;5204147;28;20148;-73
2023/01/18 01:49:51;;;;;;;15.65;14.25;;;14.20;99.90;;;;;;5205717;28;20033;-73
2023/01/18 01:52:31;;;;;;;23.52;13.30;;;13.90;99.90;;;;;;5205688;28;20420;-74
2023/01/18 01:55:29;;;;;;;;;;;13.90;99.90;;;;;;5205955;28;20021;-74
2023/01/18 01:58:09;;;;;;;25.00;23.00;;;13.90;99.90;;;;;;5205338;28;19909;-73
2023/01/18 02:00:41;;;;;;;7.35;4.03;;;14.00;99.90;;;;;;5205610;28;20521;-71
2023/01/18 02:03:17;;;;;;;12.02;8.10;;;14.10;99.90;;;;;;5205492;28;20018;-73
2023/01/18 02:06:00;;;;;;;20.27;18.27;;;14.00;99.90;;;;;;5205327;28;20544;-73
2023/01/18 02:08:31;;;;;;;20.83;18.50;;;14.00;99.90;;;;;;5205475;28;20026;-73
2023/01/18 02:11:01;;;;;;;22.25;19.88;;;14.10;99.90;;;;;;5205256;28;20026;-72
2023/01/18 02:13:32;;;;;;;21.13;19.23;;;14.10;99.90;;;;;;5205275;28;20462;-73
2023/01/18 02:16:08;;;;;;;19.85;17.48;;;14.10;99.90;;;;;;5205120;28;20481;-73
2023/01/18 02:19:06;;;;;;;15.68;14.13;;;14.10;99.90;;;;;;5205397;28;20029;-71
2023/01/18 02:21:43;;;;;;;21.05;19.00;;;14.10;99.90;;;;;;5205604;28;20048;-73
2023/01/18 02:24:25;;;;;;;18.10;15.77;;;14.20;99.90;;;;;;5205112;28;20026;-73
2023/01/18 02:26:58;;;;;;;21.45;9.88;;;14.20;99.90;;;;;;5205129;28;20029;-73
2023/01/18 02:30:01;;;;;;;15.30;13.82;;;14.40;99.90;;;;;;5203961;28;20694;-74
2023/01/18 02:32:32;;;;;;;17.92;16.63;;;14.50;99.90;;;;;;5197737;28;20366;-73
2023/01/18 02:35:10;;;;;;;16.15;12.45;;;14.60;99.90;;;;;;5205463;28;20079;-74
2023/01/18 02:37:48;;;;;;;18.23;16.77;;;14.60;99.90;;;;;;5205163;28;20026;-72
2023/01/18 02:40:31;;;;;;;12.48;11.10;;;14.40;99.90;;;;;;5205023;28;20663;-73
2023/01/18 02:48:47;;;;;;;12.88;5.40;;;14.40;99.90;;;;;;5209308;28;20565;-73
2023/01/18 02:51:17;;;;;;;13.32;3.70;;;14.30;99.90;;;;;;5208905;28;20060;-74
2023/01/18 02:53:48;;;;;;;15.02;13.45;;;14.50;99.90;;;;;;5208835;28;20026;-74
2023/01/18 02:56:46;;;;;;;19.13;17.42;;;14.40;99.90;;;;;;5208740;28;20029;-73
2023/01/18 02:59:19;;;;;;;13.55;11.70;;;14.30;99.90;;;;;;5208741;28;20025;-73
2023/01/18 03:02:03;;;;;;;16.92;15.13;;;14.40;99.90;;;;;;5208611;28;20026;-73
2023/01/18 03:04:53;;;;;;;13.82;12.43;;;14.50;99.90;;;;;;5208572;28;20021;-73
2023/01/18 03:07:41;;;;;;;18.15;16.65;;;14.40;99.90;;;;;;5208526;28;20036;-74
2023/01/18 03:10:14;;;;;;;10.10;7.28;;;14.40;99.90;;;;;;5208463;28;20057;-72
2023/01/18 03:13:05;;;;;;;30.00;27.58;;;14.60;99.90;;;;;;5208342;28;20030;-72
2023/01/18 03:16:02;;;;;;;17.08;10.48;;;14.40;99.90;;;;;;5208302;28;20033;-73
2023/01/18 03:18:59;;;;;;;10.75;3.72;;;14.40;99.90;;;;;;5208440;28;20037;-72
2023/01/18 03:21:39;;;;;;;9.43;3.30;;;14.40;99.90;;;;;;5208376;28;20033;-71
2023/01/18 03:24:11;;;;;;;18.02;15.98;;;14.40;99.90;;;;;;5208189;28;20032;-71
2023/01/18 03:26:46;;;;;;;17.42;15.88;;;14.40;99.90;;;;;;5208068;28;20052;-73
2023/01/18 03:35:11;;;;;;;16.33;14.65;;;14.50;99.90;;;;;;5208280;28;20044;-71
2023/01/18 03:37:44;;;;;;;23.05;21.02;;;14.30;99.90;;;;;;5208060;28;20435;-72
2023/01/18 03:40:23;;;;;;;11.30;7.88;;;14.40;99.90;;;;;;5207969;28;20036;-73
2023/01/18 03:43:19;;;;;;;19.65;17.42;;;14.30;99.90;;;;;;5208476;28;20033;-72
2023/01/18 03:45:53;;;;;;;10.75;9.77;;;14.40;99.90;;;;;;5207762;28;20095;-73
2023/01/18 03:48:24;;;;;;;27.08;25.02;;;14.30;99.90;;;;;;5206569;28;20059;-74
2023/01/18 03:51:24;;;;;;;18.13;16.65;;;14.50;99.90;;;;;;5207872;28;20026;-72
2023/01/18 03:54:03;;;;;;;28.63;26.20;;;14.50;99.90;;;;;;5206494;28;20021;-73
2023/01/18 03:57:02;;;;;;;8.13;4.47;;;14.40;99.90;;;;;;5206568;28;20080;-72
2023/01/18 03:59:36;;;;;;;13.10;7.03;;;14.50;99.90;;;;;;5188077;28;20120;-72
2023/01/18 04:02:08;;;;;;;12.80;3.83;;;14.40;99.90;;;;;;5207461;28;20104;-70
2023/01/18 04:04:38;;;;;;;11.38;5.10;;;14.40;99.90;;;;;;5207461;28;20032;-72
2023/01/18 04:07:09;;;;;;;22.42;20.73;;;14.50;99.90;;;;;;5207416;28;20025;-73
2023/01/18 04:09:40;;;;;;;15.38;13.82;;;14.40;99.90;;;;;;5207224;28;21809;-70
2023/01/18 04:12:11;;;;;;;13.80;11.43;;;14.40;99.90;;;;;;5207378;28;20022;-70
2023/01/18 04:14:42;;;;;;;18.90;17.10;;;14.30;99.90;;;;;;5207170;28;20057;-73
2023/01/18 04:17:12;;;;;;;23.48;21.40;;;14.40;99.90;;;;;;5207281;28;20065;-70
2023/01/18 04:19:43;;;;;;;22.98;21.13;;;14.40;99.90;;;;;;5207209;28;20528;-69
2023/01/18 04:22:15;;;;;;;17.88;16.50;;;14.40;99.90;;;;;;5207243;28;20103;-72
2023/01/18 04:24:46;;;;;;;23.60;21.75;;;14.50;99.90;;;;;;5207050;28;20025;-72
2023/01/18 04:27:17;;;;;;;26.73;24.40;;;14.40;99.90;;;;;;5206880;28;20052;-72
2023/01/18 04:29:47;;;;;;;34.63;31.73;;;14.40;99.90;;;;;;5207002;28;20029;-72
2023/01/18 04:32:18;;;;;;;27.50;24.98;;;14.30;99.90;;;;;;5206993;28;20025;-73
2023/01/18 04:34:49;;;;;;;22.05;20.13;;;14.50;99.90;;;;;;5207021;28;20033;-69
2023/01/18 04:37:20;;;;;;;27.77;25.33;;;14.50;99.90;;;;;;5206902;28;20084;-70
2023/01/18 04:39:51;;;;;;;12.15;6.15;;;14.40;99.90;;;;;;5206827;28;20021;-70
2023/01/18 04:42:24;;;;;;;11.00;4.28;;;14.40;99.90;;;;;;5206753;28;20025;-70
2023/01/18 04:44:55;;;;;;;33.03;30.73;;;14.40;99.90;;;;;;5206671;28;20021;-70
2023/01/18 04:47:29;;;;;;;23.85;22.08;;;14.40;99.90;;;;;;5206679;28;20115;-71
2023/01/18 04:50:00;;;;;;;31.42;29.25;;;14.40;99.90;;;;;;5207032;28;20029;-70
2023/01/18 04:52:32;;;;;;;16.70;15.57;;;14.30;99.90;;;;;;5206682;28;20166;-72
2023/01/18 04:55:03;;;;;;;25.20;23.00;;;14.40;99.90;;;;;;5205096;28;20030;-72
2023/01/18 04:57:33;;;;;;;15.65;11.65;;;14.30;99.90;;;;;;5206271;28;20024;-72
2023/01/18 05:00:06;;;;;;;34.45;31.88;;;14.40;99.90;;;;;;5206291;28;20037;-72
2023/01/18 05:02:37;;;;;;;28.52;25.77;;;14.20;99.90;;;;;;5205010;28;20025;-71
2023/01/18 05:05:08;;;;;;;34.97;32.00;;;14.30;99.90;;;;;;5205614;28;20029;-73
2023/01/18 05:07:39;;;;;;;18.23;5.97;;;14.30;99.90;;;;;;5206221;28;20037;-73
2023/01/18 05:10:10;;;;;;;11.43;3.88;;;14.10;99.90;;;;;;5206137;28;20432;-71
2023/01/18 05:12:41;;;;;;;21.92;20.25;;;14.30;99.90;;;;;;5206238;28;20021;-72
2023/01/18 05:15:12;;;;;;;49.13;45.65;;;14.20;99.90;;;;;;5205896;28;20443;-70
2023/01/18 05:17:43;;;;;;;16.48;12.73;;;14.40;99.90;;;;;;5206076;28;20113;-73
2023/01/18 05:20:14;;;;;;;24.10;21.95;;;14.30;99.90;;;;;;5206010;28;20025;-73
2023/01/18 05:22:45;;;;;;;25.33;23.35;;;14.30;99.90;;;;;;5204791;28;20040;-70
2023/01/18 05:25:16;;;;;;;10.10;4.82;;;14.30;99.90;;;;;;5205847;28;20018;-71
2023/01/18 05:27:46;;;;;;;12.65;11.35;;;14.30;99.90;;;;;;5205865;28;20448;-70
2023/01/18 05:30:17;;;;;;;31.27;28.92;;;14.40;99.90;;;;;;5205967;28;20422;-72
2023/01/18 05:32:48;;;;;;;15.80;14.45;;;14.30;99.90;;;;;;5205816;28;20112;-70
2023/01/18 05:35:19;;;;;;;11.88;3.50;;;14.40;99.90;;;;;;5205728;28;20859;-73
2023/01/18 05:37:49;;;;;;;12.50;3.45;;;14.40;99.90;;;;;;5204554;28;20037;-70
2023/01/18 05:40:20;;;;;;;10.65;6.45;;;14.50;99.90;;;;;;5204527;28;20025;-70
2023/01/18 05:42:52;;;;;;;27.38;25.05;;;14.50;99.90;;;;;;5205939;28;20040;-72
2023/01/18 05:45:23;;;;;;;17.13;15.73;;;14.50;99.90;;;;;;5205217;28;20461;-72
2023/01/18 05:47:54;;;;;;;24.58;22.50;;;14.50;99.90;;;;;;5205672;28;20099;-73
2023/01/18 05:50:25;;;;;;;20.77;19.02;;;14.50;99.90;;;;;;5206175;28;20500;-71
2023/01/18 05:52:58;;;;;;;25.95;24.33;;;14.40;99.90;;;;;;5205691;28;20485;-72
2023/01/18 05:55:29;;;;;;;16.98;14.85;;;14.60;99.90;;;;;;5205764;28;20865;-69
2023/01/18 05:58:00;;;;;;;18.35;16.25;;;14.60;99.90;;;;;;5205787;28;20029;-69
2023/01/18 06:00:33;;;;;;;21.85;20.42;;;14.50;99.90;;;;;;5204071;28;20021;-71
2023/01/18 06:03:03;;;;;;;14.35;12.43;;;14.50;99.90;;;;;;5205306;28;20430;-73
2023/01/18 06:05:34;;;;;;;44.40;41.33;;;14.50;99.90;;;;;;5205185;28;20076;-69
2023/01/18 06:08:05;;;;;;;15.80;14.30;;;14.70;99.90;;;;;;5203990;28;20064;-70
2023/01/18 06:10:36;;;;;;;46.58;43.25;;;14.70;99.90;;;;;;5203821;28;20041;-70
2023/01/18 06:13:07;;;;;;;11.15;3.55;;;14.60;99.90;;;;;;5205140;28;20022;-72
2023/01/18 06:15:39;;;;;;;10.45;4.18;;;14.70;99.90;;;;;;5205049;28;20017;-73
2023/01/18 06:18:10;;;;;;;10.60;7.05;;;14.60;99.90;;;;;;5208390;28;20621;-70
2023/01/18 06:20:41;;;;;;;19.02;16.75;;;14.80;99.90;;;;;;5209431;28;20079;-70
2023/01/18 06:23:11;;;;;;;25.25;23.00;;;14.70;99.90;;;;;;5209348;28;20025;-71
2023/01/18 06:25:42;;;;;;;20.08;18.50;;;14.70;99.90;;;;;;5209193;28;20042;-69
2023/01/18 06:28:13;;;;;;;14.98;11.48;;;14.80;99.90;;;;;;5209320;28;20029;-72
2023/01/18 06:30:46;;;;;;;17.92;16.30;;;14.70;99.90;;;;;;5209269;28;20092;-73
2023/01/18 06:33:17;;;;;;;29.80;27.45;;;14.80;99.90;;;;;;5209253;28;20099;-73
2023/01/18 06:35:48;;;;;;;23.77;21.75;;;14.80;99.90;;;;;;5209127;28;20104;-72
2023/01/18 06:38:19;;;;;;;21.25;19.30;;;14.80;99.90;;;;;;5207894;28;20037;-72
2023/01/18 06:40:50;;;;;;;34.30;32.00;;;14.80;99.90;;;;;;5208955;28;20020;-71
2023/01/18 06:43:21;;;;;;;48.25;44.70;;;14.80;99.90;;;;;;5208978;28;20108;-73
2023/01/18 06:45:56;;;;;;;62.03;55.05;;;14.80;99.90;;;;;;5208445;28;20053;-70
2023/01/18 06:48:28;;;;;;;39.83;37.13;;;14.80;99.90;;;;;;5209060;28;20033;-72
2023/01/18 06:50:59;;;;;;;37.53;34.65;;;14.80;99.90;;;;;;5209007;28;20060;-70
2023/01/18 06:53:30;;;;;;;48.75;45.20;;;14.80;99.90;;;;;;5208989;28;20516;-71
2023/01/18 06:56:00;;;;;;;34.13;31.63;;;14.90;99.90;;;;;;5207557;28;20057;-73
2023/01/18 06:58:32;;;;;;;42.95;40.13;;;14.80;99.90;;;;;;5208852;28;20480;-71
2023/01/18 07:01:03;;;;;;;18.05;16.30;;;14.80;99.90;;;;;;5208798;28;20079;-72
2023/01/18 07:03:33;;;;;;;35.22;32.38;;;14.80;99.90;;;;;;5208991;28;20454;-73
2023/01/18 07:06:06;;;;;;;14.40;13.18;;;14.80;99.90;;;;;;5208931;28;20484;-73
2023/01/18 07:08:38;;;;;;;14.95;13.05;;;14.90;99.90;;;;;;5208633;28;20022;-73
2023/01/18 07:11:11;;;;;;;26.67;24.63;;;14.90;99.90;;;;;;5208371;28;20033;-73
2023/01/18 07:13:42;;;;;;;31.15;28.00;;;14.90;99.90;;;;;;5208361;28;20022;-72
2023/01/18 07:16:20;;;;;;;30.45;28.33;;;14.80;99.90;;;;;;5208416;28;20465;-73
2023/01/18 07:18:50;;;;;;;15.55;4.72;;;14.90;99.90;;;;;;5208387;28;20037;-71
2023/01/18 07:21:28;;;;;;;13.88;7.15;;;15.00;99.90;;;;;;5208339;28;20030;-69
2023/01/18 07:23:59;;;;;;;12.88;9.70;;;15.00;99.90;;;;;;5208458;28;20013;-73
2023/01/18 07:26:30;;;;;;;37.78;34.92;;;15.10;99.90;;;;;;5208130;28;20069;-70
2023/01/18 07:29:00;;;;;;;11.20;8.75;;;15.10;99.90;;;;;;5207713;28;20052;-70
2023/01/18 07:31:31;;;;;;;12.73;11.75;;;15.20;99.90;;;;;;5208220;28;20067;-73
2023/01/18 07:34:03;;;;;;;33.55;31.25;;;15.40;99.90;;;;;;5208081;28;20045;-70
2023/01/18 07:36:33;;;;;;;13.15;12.02;;;15.30;99.90;;;;;;5208042;28;20354;-71
2023/01/18 07:39:05;;;;;;;13.20;9.93;;;15.30;99.90;;;;;;5207957;28;20080;-73
2023/01/18 07:41:36;;;;;;;19.48;16.60;;;15.60;99.90;;;;;;5207913;28;20087;-72
2023/01/18 07:44:09;;;;;;;15.82;10.68;;;15.60;99.90;;;;;;5207927;28;20047;-70
2023/01/18 07:46:41;;;;;;;11.27;10.05;;;15.70;99.90;;;;;;5207479;28;20053;-71
2023/01/18 07:49:12;;;;;;;15.13;13.63;;;15.70;99.90;;;;;;5207708;28;20064;-72
2023/01/18 07:51:43;;;;;;;20.38;19.08;;;15.80;99.90;;;;;;5207765;28;20100;-71
2023/01/18 07:54:16;;;;;;;13.07;11.88;;;15.80;99.90;;;;;;5207576;28;20449;-70
2023/01/18 07:56:46;;;;;;;19.52;17.17;;;15.80;99.90;;;;;;5207742;28;20020;-72
2023/01/18 07:59:17;;;;;;;16.80;15.25;;;15.80;99.90;;;;;;5207599;28;20026;-72
2023/01/18 08:01:48;;;;;;;11.50;9.77;;;16.00;99.90;;;;;;5207750;28;20029;-73
2023/01/18 08:04:20;;;;;;;20.15;18.48;;;16.00;99.90;;;;;;5207495;28;20061;-73
2023/01/18 08:06:51;;;;;;;13.18;11.80;;;16.10;99.90;;;;;;5207519;28;20037;-70
2023/01/18 08:09:22;;;;;;;274.00;253.30;;;16.10;99.90;;;;;;5207415;28;20048;-71
2023/01/18 08:11:52;;;;;;;32.08;29.75;;;16.00;99.90;;;;;;5207682;28;20029;-73
2023/01/18 08:14:23;;;;;;;22.58;20.83;;;16.10;99.90;;;;;;5207470;28;20052;-70
2023/01/18 08:16:54;;;;;;;29.58;27.40;;;16.40;99.90;;;;;;5207232;28;20044;-73
2023/01/18 08:19:25;;;;;;;24.30;21.83;;;16.20;99.90;;;;;;5207073;28;20034;-70
2023/01/18 08:21:55;;;;;;;11.25;9.50;;;16.30;99.90;;;;;;5207123;28;20037;-70
2023/01/18 08:24:26;;;;;;;14.68;9.82;;;16.40;99.90;;;;;;5207144;28;20029;-71
2023/01/18 08:26:57;;;;;;;10.77;9.63;;;16.40;99.90;;;;;;5206939;28;20515;-73
2023/01/18 08:29:28;;;;;;;70.20;65.93;;;16.30;99.90;;;;;;5206956;28;20076;-77
2023/01/18 08:31:59;;;;;;;41.75;39.05;;;16.40;99.90;;;;;;5206942;28;20091;-76
2023/01/18 08:34:30;;;;;;;39.28;36.55;;;16.50;99.90;;;;;;5206948;28;20485;-70
2023/01/18 08:37:01;;;;;;;16.10;14.52;;;16.30;99.90;;;;;;5205882;28;20029;-72
2023/01/18 08:39:31;;;;;;;25.23;21.85;;;16.70;99.90;;;;;;5205945;28;20499;-72
2023/01/18 08:42:03;;;;;;;17.85;15.63;;;16.90;99.90;;;;;;5206768;28;20087;-72
2023/01/18 08:44:34;;;;;;;12.13;4.90;;;17.00;99.90;;;;;;5206562;28;20412;-73
2023/01/18 08:47:04;;;;;;;5.65;3.40;;;16.90;99.90;;;;;;5206325;28;20057;-72
2023/01/18 08:49:35;;;;;;;14.43;3.25;;;17.20;99.90;;;;;;5206699;28;20532;-74
2023/01/18 08:52:09;;;;;;;13.50;4.20;;;17.10;99.90;;;;;;5206582;28;20025;-72
2023/01/18 08:54:40;;;;;;;14.23;12.90;;;17.00;99.90;;;;;;5206502;28;20029;-72
2023/01/18 08:57:11;;;;;;;8.88;7.95;;;17.00;99.90;;;;;;5206499;28;20037;-72
2023/01/18 08:59:42;;;;;;;15.93;13.68;;;16.90;99.90;;;;;;5206357;28;20373;-73
2023/01/18 09:02:12;;;;;;;11.52;8.30;;;17.20;99.90;;;;;;5206314;28;20029;-72
2023/01/18 09:04:47;;;;;;;16.35;10.65;;;17.20;99.90;;;;;;5204974;28;20112;-73
2023/01/18 09:07:19;;;;;;;13.95;8.80;;;17.20;99.90;;;;;;5206152;28;20041;-74
2023/01/18 09:09:49;;;;;;;9.80;5.18;;;17.20;99.90;;;;;;5206339;28;20531;-71
2023/01/18 09:12:20;;;;;;;8.13;6.35;;;17.40;99.90;;;;;;5206289;28;20022;-73
2023/01/18 09:14:51;;;;;;;28.92;26.75;;;17.40;99.90;;;;;;5206228;28;20448;-74
2023/01/18 09:17:22;;;;;;;5.10;3.08;;;17.10;99.90;;;;;;5206549;28;20037;-73
2023/01/18 09:19:53;;;;;;;82.78;77.40;;;17.30;99.90;;;;;;5206781;28;20517;-73
2023/01/18 09:22:24;;;;;;;73.20;68.43;;;17.00;99.90;;;;;;5206267;28;20022;-73
2023/01/18 09:24:56;;;;;;;12.35;8.68;;;17.00;99.90;;;;;;5206180;28;20083;-71
2023/01/18 09:27:28;;;;;;;7.40;3.28;;;17.50;99.90;;;;;;5205895;28;20103;-74
2023/01/18 09:29:59;;;;;;;8.30;3.58;;;17.50;99.90;;;;;;5204682;28;20025;-73
2023/01/18 09:32:30;;;;;;;11.13;5.97;;;17.40;99.90;;;;;;5205720;28;20036;-71
2023/01/18 09:35:01;;;;;;;12.80;6.68;;;17.30;99.90;;;;;;5205683;28;20030;-71
2023/01/18 09:37:32;;;;;;;12.02;8.30;;;16.90;99.90;;;;;;5205733;28;20033;-72
2023/01/18 09:40:03;;;;;;;12.27;6.95;;;17.00;99.90;;;;;;5205633;28;20032;-73
2023/01/18 09:42:40;;;;;;;18.38;3.88;;;17.20;99.90;;;;;;5205746;28;20025;-71
2023/01/18 09:45:43;;;;;;;13.10;11.85;;;17.00;99.90;;;;;;5205586;28;20026;-73
2023/01/18 09:48:31;;;;;;;12.82;10.90;;;17.00;99.90;;;;;;5201339;28;20049;-73
2023/01/18 09:51:08;;;;;;;10.10;7.65;;;16.90;99.90;;;;;;5205464;28;20468;-73
2023/01/18 09:54:04;;;;;;;9.60;4.65;;;16.90;99.90;;;;;;5204199;28;20767;-73
2023/01/18 09:56:57;;;;;;;8.32;4.40;;;16.90;99.90;;;;;;5205541;28;20133;-72
2023/01/18 09:59:37;;;;;;;8.10;7.10;;;16.90;99.90;;;;;;5205454;28;20029;-72
2023/01/18 10:02:24;;;;;;;16.92;15.27;;;17.00;99.90;;;;;;5205501;28;20036;-71
2023/01/18 10:05:03;;;;;;;13.88;7.75;;;16.90;99.90;;;;;;5205332;28;20369;-72
2023/01/18 10:07:44;;;;;;;11.57;5.13;;;17.10;99.90;;;;;;5205340;28;20045;-73
2023/01/18 10:10:17;;;;;;;17.30;8.23;;;17.60;99.90;;;;;;5203921;28;20025;-70
2023/01/18 10:13:13;;;;;;;12.85;4.95;;;17.30;99.90;;;;;;5205392;28;20021;-72
2023/01/18 10:15:44;;;;;;;7.47;4.25;;;17.80;99.90;;;;;;5205090;28;20049;-73
2023/01/18 10:18:17;;;;;;;10.25;5.10;;;18.20;99.90;;;;;;5205333;28;20047;-71
2023/01/18 10:20:59;;;;;;;12.35;6.85;;;17.80;99.90;;;;;;5205184;28;20440;-73
2023/01/18 10:23:37;;;;;;;11.57;6.20;;;17.90;99.90;;;;;;5205309;28;20025;-72
2023/01/18 10:26:30;;;;;;;10.20;5.57;;;17.50;99.90;;;;;;5205484;28;20032;-73
2023/01/18 10:29:24;;;;;;;12.18;4.75;;;17.20;99.90;;;;;;5205537;28;20473;-71
2023/01/18 10:32:13;;;;;;;9.73;4.05;;;17.10;99.90;;;;;;5205211;28;20040;-71
2023/01/18 10:34:48;;;;;;;9.83;4.03;;;17.00;99.90;;;;;;5203628;28;20120;-73
2023/01/18 10:37:44;;;;;;;11.85;5.20;;;17.00;99.90;;;;;;5205044;28;20049;-72
2023/01/18 10:40:15;;;;;;;10.23;3.13;;;16.80;99.90;;;;;;5205024;28;20511;-72
2023/01/18 10:42:55;;;;;;;9.35;4.13;;;16.80;99.90;;;;;;5205081;28;20029;-74
2023/01/18 10:45:27;;;;;;;;;;;16.70;99.90;;;;;;5205005;28;20226;-74
2023/01/18 10:48:29;;;;;;;17.02;15.50;;;16.60;99.90;;;;;;5204883;28;20003;-72
2023/01/18 10:51:04;;;;;;;6.60;3.88;;;16.70;99.90;;;;;;5204790;28;20091;-71
2023/01/18 10:53:37;;;;;;;7.93;6.15;;;16.80;99.90;;;;;;5204845;28;20432;-71
2023/01/18 10:56:17;;;;;;;14.50;6.47;;;16.90;99.90;;;;;;5203825;28;20477;-73
2023/01/18 10:58:57;;;;;;;13.38;5.40;;;16.90;99.90;;;;;;5205104;28;20496;-72
2023/01/18 11:01:35;;;;;;;;;;;16.90;99.90;;;;;;5205448;28;20096;-73
2023/01/18 11:04:25;;;;;;;12.13;3.58;;;16.90;99.90;;;;;;5207538;28;19911;-72
2023/01/18 11:06:59;;;;;;;14.00;6.03;;;17.00;99.90;;;;;;5208581;28;20044;-72
2023/01/18 11:09:48;;;;;;;13.45;4.55;;;17.00;99.90;;;;;;5208429;28;20041;-72
2023/01/18 11:12:58;;;;;;;8.15;5.32;;;17.20;99.90;;;;;;5207291;28;20021;-71
2023/01/18 11:15:30;;;;;;;15.10;12.90;;;17.30;99.90;;;;;;5185534;28;20521;-72
2023/01/18 11:18:05;;;;;;;44.17;40.40;;;17.50;99.90;;;;;;5185699;28;20656;-71
2023/01/18 11:20:44;;;;;;;7.18;3.85;;;17.50;99.90;;;;;;5168966;28;20544;-72
2023/01/18 11:23:19;;;;;;;7.07;4.55;;;17.50;99.90;;;;;;5185523;28;20037;-72
2023/01/18 11:26:04;;;;;;;12.90;5.13;;;17.60;99.90;;;;;;5168851;28;20042;-72
2023/01/18 11:28:44;;;;;;;5.20;4.05;;;17.60;99.90;;;;;;5185579;28;20033;-72
2023/01/18 11:31:20;;;;;;;10.48;4.32;;;17.70;99.90;;;;;;5185976;28;20133;-72
2023/01/18 11:33:54;;;;;;;12.60;4.90;;;17.80;99.90;;;;;;5185643;28;20476;-72
2023/01/18 11:36:44;;;;;;;10.05;3.65;;;17.80;99.90;;;;;;5185397;28;20133;-71
2023/01/18 11:39:34;;;;;;;9.43;3.47;;;17.80;99.90;;;;;;5185242;28;20147;-72
2023/01/18 11:42:15;;;;;;;11.27;4.47;;;17.80;99.90;;;;;;5185189;28;20037;-73
2023/01/18 11:45:11;;;;;;;12.23;4.80;;;18.10;99.90;;;;;;5185096;28;20030;-71
2023/01/18 11:47:50;;;;;;;14.63;7.30;;;18.10;99.90;;;;;;5207859;28;20049;-71
2023/01/18 11:50:21;;;;;;;10.98;4.15;;;17.90;99.90;;;;;;5207789;28;20029;-72
2023/01/18 11:53:33;;;;;;;8.27;5.47;;;18.20;99.90;;;;;;5207757;28;20036;-72
2023/01/18 11:56:26;;;;;;;10.73;6.00;;;18.50;99.90;;;;;;5199890;28;20049;-73
2023/01/18 11:58:58;;;;;;;8.85;8.00;;;18.90;99.90;;;;;;5207969;28;20025;-72
2023/01/18 12:01:52;;;;;;;11.57;8.32;;;19.10;99.90;;;;;;5207785;28;20029;-74
2023/01/18 12:05:06;;;;;;;10.63;9.70;;;18.90;99.90;;;;;;5207517;28;20017;-73
2023/01/18 12:08:09;;;;;;;11.63;10.38;;;18.60;99.90;;;;;;5184520;28;20494;-73
2023/01/18 12:10:48;;;;;;;10.10;7.72;;;18.30;99.90;;;;;;5184634;28;20497;-72
2023/01/18 12:13:42;;;;;;;10.38;6.65;;;18.10;99.90;;;;;;5184605;28;20778;-73
2023/01/18 12:16:19;;;;;;;7.25;4.63;;;18.20;99.90;;;;;;5183764;28;20149;-72
2023/01/18 12:19:29;;;;;;;12.05;6.40;;;18.10;99.90;;;;;;5184437;28;20049;-73
2023/01/18 12:22:26;;;;;;;15.73;7.75;;;18.50;99.90;;;;;;5180749;28;20045;-73
2023/01/18 12:25:20;;;;;;;8.77;6.72;;;18.60;99.90;;;;;;5184440;28;20113;-74
2023/01/18 12:28:06;;;;;;;11.10;7.50;;;18.50;99.90;;;;;;5184430;28;20265;-73
2023/01/18 12:30:53;;;;;;;10.77;9.23;;;18.80;99.90;;;;;;5184662;28;20037;-73
2023/01/18 12:34:04;;;;;;;9.13;7.53;;;18.60;99.90;;;;;;5168028;28;20034;-74
2023/01/18 12:37:12;;;;;;;16.10;8.27;;;18.10;99.90;;;;;;5184470;28;20026;-73
2023/01/18 12:39:43;;;;;;;12.65;6.13;;;18.30;99.90;;;;;;5184518;28;20026;-73
2023/01/18 12:42:38;;;;;;;16.70;10.85;;;18.30;99.90;;;;;;5184320;28;20417;-74
2023/01/18 12:45:15;;;;;;;12.35;10.25;;;18.30;99.90;;;;;;5200174;28;20080;-74
2023/01/18 12:48:14;;;;;;;14.23;7.70;;;18.20;99.90;;;;;;5216213;28;20048;-74
2023/01/18 12:50:48;;;;;;;14.32;13.05;;;18.10;99.90;;;;;;5209668;28;20038;-72
2023/01/18 12:53:45;;;;;;;14.38;8.00;;;18.20;99.90;;;;;;5207686;28;20059;-73
2023/01/18 12:56:37;;;;;;;10.38;8.07;;;17.90;99.90;;;;;;5208411;28;20041;-73
2023/01/18 12:59:17;;;;;;;17.13;14.82;;;17.80;99.90;;;;;;5206447;28;20021;-73
2023/01/18 13:01:55;;;;;;;9.07;6.03;;;17.90;99.90;;;;;;5205079;28;20025;-73
2023/01/18 13:04:41;;;;;;;10.18;7.03;;;17.90;99.90;;;;;;5206371;28;20030;-73
2023/01/18 13:07:14;;;;;;;11.05;9.27;;;17.90;99.90;;;;;;5205025;28;20067;-73
2023/01/18 13:09:49;;;;;;;11.77;7.50;;;17.80;99.90;;;;;;5206232;28;20112;-73
2023/01/18 13:12:20;;;;;;;14.07;7.00;;;17.80;99.90;;;;;;5206265;28;20075;-72
2023/01/18 13:15:18;;;;;;;8.32;6.28;;;17.90;99.90;;;;;;5205954;28;20083;-72
2023/01/18 13:18:02;;;;;;;5.45;3.22;;;17.70;99.90;;;;;;5206456;28;20101;-72
2023/01/18 13:20:50;;;;;;;12.88;5.00;;;17.80;99.90;;;;;;5206158;28;20084;-73
2023/01/18 13:23:46;;;;;;;10.13;7.88;;;17.70;99.90;;;;;;5206198;28;20028;-72
2023/01/18 13:26:30;;;;;;;12.48;6.10;;;17.70;99.90;;;;;;5205728;28;20030;-73
2023/01/18 13:29:28;;;;;;;13.25;6.47;;;17.70;99.90;;;;;;5205988;28;20126;-73
2023/01/18 13:31:59;;;;;;;12.77;6.20;;;17.70;99.90;;;;;;5206319;28;20060;-72
2023/01/18 13:34:36;;;;;;;22.30;20.13;;;17.60;99.90;;;;;;5206094;28;20033;-72
2023/01/18 13:37:27;;;;;;;10.68;8.23;;;17.60;99.90;;;;;;5205948;28;20025;-71
2023/01/18 13:39:57;;;;;;;8.45;5.47;;;17.70;99.90;;;;;;5206618;28;20033;-73
2023/01/18 13:42:37;;;;;;;13.98;4.78;;;17.50;99.90;;;;;;5224091;28;20040;-73
2023/01/18 13:45:21;;;;;;;11.20;4.57;;;17.50;99.90;;;;;;5226450;28;20035;-73
2023/01/18 13:48:04;;;;;;;17.95;5.70;;;17.60;99.90;;;;;;5226765;28;20037;-73
2023/01/18 13:50:38;;;;;;;10.27;4.65;;;17.50;99.90;;;;;;5226630;28;20044;-72
2023/01/18 13:53:12;;;;;;;14.20;4.38;;;17.50;99.90;;;;;;5226537;28;20017;-73